Robertsdale, Alabama
Current Conditions -  °F | °C
As of 6:35 PM on Monday 24 Nov 2014 (Local Time) from KCQF Reporting Station
Clear Clear  
Wind Chill: 17°   Ceiling: Unl
Heat Index: 17°   Visibility: 10mi
Dew Point: 13°   Wind: 8mph
Humidity: 77%   Direction: 330°NNW
Pressure: 29.93"   Gusts: NA
Location:  30.55°N, 87.71°W
Report Text: KCQF 250035Z AUTO 33007KT 10SM CLR 17/13 A2993 RMK AO2
Loading
Personal Weather Stations






























Interactive Weather Map New forecast layout! Learn more

10-Day Weather Forecast

Advertisements
Track Severe Weather on mobile